KLCI/LCI METAR and TAF weather

Enter ICAO airport designator
Station Type Date Time Source
KLCI METAR 2019/05/23 18:56 UTC NOAA

KLCI 231856Z AUTO 04005KT 10SM FEW048 19/10 A2997 RMK AO2 SLP148 T01890100


Station Type Date Time Source
KLCI Decoded METAR 2019/05/23 18:56 UTC NOAA

Laconia, Laconia Municipal Airport, NH, United States (KLCI) 43-34N 071-25W
May 23, 2019 - 02:56 PM EDT / 2019.05.23 1856 UTC
Wind: from the NE (040 degrees) at 6 MPH (5 KT):0
Visibility: 10 mile(s):0
Sky conditions: mostly clear
Temperature: 66.0 F (18.9 C)
Dew Point: 50.0 F (10.0 C)
Relative Humidity: 56%
Pressure (altimeter): 29.97 in. Hg (1014 hPa)
ob: KLCI 231856Z AUTO 04005KT 10SM FEW048 19/10 A2997 RMK AO2 SLP148 T01890100
cycle: 19

Station Type Date Time Source
KLCI TAF UTC NOAA

Error!

Example: see airport list